Time;durP1;ratioP1;P1;durP2;ratioP2;P2;SDS_P1;SDS_P2;PMS_P1;PMS_P2;Temp;Humidity;BMP_temperature;BMP_pressure;BME280_temperature;BME280_humidity;BME280_pressure;Samples;Min_cycle;Max_cycle;Signal;HPM_P1;HPM_P2
2024/03/06 00:01:55;;;;;;;;;;;;;;;10.39;52.96;101009.47;4978848;27;98196;-71
2024/03/06 00:04:21;;;;;;;;;;;;;;;10.40;53.21;101011.09;4963797;27;97910;-70
2024/03/06 00:06:47;;;;;;;;;;;;;;;10.38;53.03;101018.63;4979422;27;98920;-70
2024/03/06 00:09:13;;;;;;;;;;;;;;;10.35;53.00;101022.63;4984670;27;115675;-71
2024/03/06 00:11:40;;;;;;;;;;;;;;;10.35;52.90;101022.63;4976553;27;126822;-70
2024/03/06 00:14:06;;;;;;;;;;;;;;;10.34;52.95;101025.59;4984333;27;99620;-70
2024/03/06 00:16:35;;;;;;;;;;;;;;;10.32;53.36;101032.03;4971433;27;129783;-70
2024/03/06 00:19:01;;;;;;;;;;;;;;;10.30;52.98;101028.78;4989791;27;99512;-70
2024/03/06 00:21:28;;;;;;;;;;;;;;;10.29;53.28;101035.22;4979173;27;98021;-71
2024/03/06 00:23:55;;;;;;;;;;;;;;;10.28;53.30;101033.59;4985747;27;98276;-71
2024/03/06 00:26:21;;;;;;;;;;;;;;;10.26;53.12;101026.84;4981797;27;98117;-71
2024/03/06 00:28:47;;;;;;;;;;;;;;;10.25;53.00;101026.00;4973014;27;98114;-70
2024/03/06 00:31:14;;;;;;;;;;;;;;;10.23;53.38;101028.13;4982520;27;98213;-71
2024/03/06 00:33:41;;;;;;;;;;;;;;;10.23;52.90;101028.13;4962918;27;97947;-71
2024/03/06 00:36:07;;;;;;;;;;;;;;;10.22;52.94;101031.09;4984962;27;98057;-70
2024/03/06 00:38:33;;;;;;;;;;;;;;;10.22;53.32;101033.78;4980324;27;98334;-70
2024/03/06 00:40:59;;;;;;;;;;;;;;;10.20;53.21;101035.91;4985816;27;107023;-70
2024/03/06 00:43:25;;;;;;;;;;;;;;;10.18;53.22;101038.84;4985851;27;121639;-70
2024/03/06 00:45:51;;;;;;;;;;;;;;;10.17;52.88;101039.09;4964147;27;98017;-71
2024/03/06 00:48:19;;;;;;;;;;;;;;;10.16;52.79;101038.28;4987897;27;117176;-71
2024/03/06 00:50:45;;;;;;;;;;;;;;;10.15;52.80;101041.22;4971026;27;99463;-71
2024/03/06 00:53:11;;;;;;;;;;;;;;;10.13;53.35;101037.94;4966727;27;107322;-71
2024/03/06 00:55:37;;;;;;;;;;;;;;;10.13;52.98;101036.06;4969879;27;121926;-70
2024/03/06 00:58:04;;;;;;;;;;;;;;;10.11;53.09;101046.31;4988736;27;98461;-71
2024/03/06 01:00:30;;;;;;;;;;;;;;;10.11;53.41;101046.31;4977092;27;99624;-70
2024/03/06 01:02:56;;;;;;;;;;;;;;;10.10;52.86;101041.97;5000221;27;99631;-70
2024/03/06 01:05:22;;;;;;;;;;;;;;;10.08;53.34;101044.09;5000311;27;98484;-71
2024/03/06 01:07:48;;;;;;;;;;;;;;;10.06;52.79;101040.81;4993908;27;115152;-71
2024/03/06 01:10:17;;;;;;;;;;;;;;;10.06;52.96;101040.81;4988584;27;99466;-71
2024/03/06 01:12:46;;;;;;;;;;;;;;;10.03;52.92;101036.78;4971268;27;98145;-70
2024/03/06 01:15:12;;;;;;;;;;;;;;;10.02;52.91;101043.22;4967438;27;99285;-70
2024/03/06 01:17:38;;;;;;;;;;;;;;;10.01;52.92;101046.97;4988702;27;98129;-70
2024/03/06 01:20:06;;;;;;;;;;;;;;;10.00;53.20;101049.91;4980532;27;98205;-70
2024/03/06 01:22:35;;;;;;;;;;;;;;;9.99;52.66;101053.69;4974101;27;98743;-70
2024/03/06 01:25:01;;;;;;;;;;;;;;;9.98;53.01;101055.56;4974598;27;99407;-70
2024/03/06 01:27:27;;;;;;;;;;;;;;;9.98;53.04;101057.41;4987718;27;98073;-70
2024/03/06 01:29:53;;;;;;;;;;;;;;;9.96;53.07;101057.69;5019893;27;98213;-71
2024/03/06 01:32:19;;;;;;;;;;;;;;;9.96;53.21;101070.34;4980434;27;98058;-70
2024/03/06 01:34:45;;;;;;;;;;;;;;;9.94;52.74;101059.81;4985478;27;98292;-70
2024/03/06 01:37:11;;;;;;;;;;;;;;;9.92;53.01;101055.75;4997210;27;98927;-70
2024/03/06 01:39:37;;;;;;;;;;;;;;;9.92;52.90;101069.19;4971276;27;98136;-71
2024/03/06 01:42:03;;;;;;;;;;;;;;;9.91;53.46;101070.28;4979056;27;100962;-70
2024/03/06 01:44:29;;;;;;;;;;;;;;;9.90;52.65;101068.63;4966938;27;119797;-70
2024/03/06 01:46:55;;;;;;;;;;;;;;;9.88;52.86;101070.75;4971206;27;97920;-70
2024/03/06 01:49:24;;;;;;;;;;;;;;;9.87;52.72;101072.66;4971912;27;98117;-70
2024/03/06 01:51:52;;;;;;;;;;;;;;;9.86;52.85;101070.19;4972516;27;99622;-70
2024/03/06 01:54:19;;;;;;;;;;;;;;;9.84;53.31;101068.56;5007442;27;99870;-70
2024/03/06 01:56:46;;;;;;;;;;;;;;;9.83;53.24;101071.50;4985274;27;98307;-70
2024/03/06 01:59:15;;;;;;;;;;;;;;;9.82;53.45;101078.78;4983006;27;98240;-70
2024/03/06 02:01:41;;;;;;;;;;;;;;;9.80;53.31;101064.72;4984130;27;98435;-70
2024/03/06 02:04:09;;;;;;;;;;;;;;;9.80;53.35;101077.38;4986248;27;98441;-70
2024/03/06 02:06:36;;;;;;;;;;;;;;;9.79;52.89;101075.75;4966558;27;98169;-70
2024/03/06 02:09:03;;;;;;;;;;;;;;;9.78;53.08;101080.31;4987104;27;99922;-70
2024/03/06 02:11:29;;;;;;;;;;;;;;;9.76;53.39;101082.44;5001254;27;98901;-70
2024/03/06 02:13:55;;;;;;;;;;;;;;;9.76;53.05;101078.94;4987275;27;111663;-71
2024/03/06 02:16:21;;;;;;;;;;;;;;;9.74;53.14;101081.03;5005081;27;98663;-71
2024/03/06 02:18:59;;;;;;;;;;;;;;;9.72;52.99;101081.31;5002942;27;122047;-70
2024/03/06 02:21:25;;;;;;;;;;;;;;;9.71;53.53;101082.38;4984578;27;98350;-71
2024/03/06 02:23:51;;;;;;;;;;;;;;;9.68;53.47;101088.25;4971867;27;98944;-70
2024/03/06 02:26:18;;;;;;;;;;;;;;;9.65;53.14;101082.53;5010176;27;98351;-71
2024/03/06 02:28:47;;;;;;;;;;;;;;;9.62;52.56;101083.03;4978186;27;98534;-71
2024/03/06 02:31:13;;;;;;;;;;;;;;;9.57;53.32;101073.00;4991644;27;98212;-71
2024/03/06 02:33:39;;;;;;;;;;;;;;;9.55;53.15;101078.63;4989452;27;98161;-71
2024/03/06 02:36:06;;;;;;;;;;;;;;;9.54;53.22;101073.47;4980183;27;98173;-71
2024/03/06 02:38:32;;;;;;;;;;;;;;;9.49;53.09;101076.91;4999693;27;98291;-70
2024/03/06 02:40:57;;;;;;;;;;;;;;;9.49;53.20;101078.78;4990238;27;98268;-71
2024/03/06 02:43:23;;;;;;;;;;;;;;;9.46;53.04;101085.47;4988032;27;107235;-70
2024/03/06 02:45:49;;;;;;;;;;;;;;;9.44;52.60;101081.41;4971820;27;98013;-71
2024/03/06 02:48:15;;;;;;;;;;;;;;;9.42;52.86;101080.81;4991246;27;127777;-70
2024/03/06 02:50:41;;;;;;;;;;;;;;;9.40;53.49;101088.34;4989638;27;98024;-70
2024/03/06 02:53:07;;;;;;;;;;;;;;;9.37;52.73;101080.75;4991820;27;101353;-70
2024/03/06 02:55:33;;;;;;;;;;;;;;;9.36;52.61;101079.94;4994413;27;112145;-70
2024/03/06 02:58:02;;;;;;;;;;;;;;;9.35;52.61;101086.34;4990353;27;99709;-71
2024/03/06 03:00:28;;;;;;;;;;;;;;;9.34;53.51;101090.13;4986246;27;99823;-70
2024/03/06 03:02:54;;;;;;;;;;;;;;;9.32;52.79;101086.88;4993415;27;108840;-71
2024/03/06 03:05:20;;;;;;;;;;;;;;;9.29;52.91;101085.47;4981360;27;99658;-70
2024/03/06 03:07:46;;;;;;;;;;;;;;;9.28;52.82;101089.22;4967371;27;98209;-71
2024/03/06 03:10:13;;;;;;;;;;;;;;;9.29;53.07;101098.13;4989734;27;109993;-71
2024/03/06 03:12:39;;;;;;;;;;;;;;;9.27;52.79;101094.84;4986894;27;99629;-70
2024/03/06 03:15:06;;;;;;;;;;;;;;;9.26;52.78;101095.91;5015560;27;98447;-71
2024/03/06 03:17:33;;;;;;;;;;;;;;;9.24;53.06;101090.78;4981149;27;100261;-71
2024/03/06 03:19:59;;;;;;;;;;;;;;;9.23;52.88;101097.19;4976411;27;98078;-70
2024/03/06 03:22:25;;;;;;;;;;;;;;;9.21;52.44;101102.00;4988705;27;98344;-70
2024/03/06 03:24:51;;;;;;;;;;;;;;;9.21;53.09;101110.09;4988385;27;98103;-71
2024/03/06 03:27:17;;;;;;;;;;;;;;;9.18;52.91;101105.19;4984921;27;127713;-70
2024/03/06 03:29:44;;;;;;;;;;;;;;;9.18;53.17;101107.06;4974702;27;98516;-70
2024/03/06 03:32:10;;;;;;;;;;;;;;;9.18;53.01;101115.13;4989891;27;103916;-71
2024/03/06 03:34:36;;;;;;;;;;;;;;;9.16;52.64;101118.06;4981526;27;99118;-70
2024/03/06 03:37:02;;;;;;;;;;;;;;;9.14;52.98;101120.19;4983373;27;113827;-71
2024/03/06 03:39:28;;;;;;;;;;;;;;;9.13;53.49;101115.88;5006009;27;98447;-71
2024/03/06 03:41:54;;;;;;;;;;;;;;;9.12;52.79;101119.63;4983396;27;123296;-70
2024/03/06 03:44:20;;;;;;;;;;;;;;;9.12;52.93;101126.84;4972739;27;100323;-70
2024/03/06 03:46:46;;;;;;;;;;;;;;;9.09;53.11;101126.28;4986930;27;115397;-70
2024/03/06 03:49:12;;;;;;;;;;;;;;;9.09;52.79;101128.16;5000741;27;98533;-71
2024/03/06 03:51:39;;;;;;;;;;;;;;;9.07;52.75;101125.69;4976127;27;98306;-70
2024/03/06 03:54:05;;;;;;;;;;;;;;;9.06;52.93;101132.13;4981753;27;97790;-71
2024/03/06 03:56:32;;;;;;;;;;;;;;;9.06;53.13;101132.13;4970694;27;98319;-71
2024/03/06 03:58:58;;;;;;;;;;;;;;;9.04;52.60;101139.66;4975276;27;100422;-71
2024/03/06 04:01:27;;;;;;;;;;;;;;;9.03;53.13;101139.88;4988488;27;98048;-71
2024/03/06 04:03:53;;;;;;;;;;;;;;;9.02;52.88;101136.38;4986612;27;97882;-71
2024/03/06 04:06:19;;;;;;;;;;;;;;;9.01;53.18;101140.13;4992243;27;98140;-70
2024/03/06 04:08:45;;;;;;;;;;;;;;;9.01;52.80;101150.06;4983146;27;98772;-71
2024/03/06 04:11:11;;;;;;;;;;;;;;;8.99;53.14;101141.41;4993684;27;98157;-70
2024/03/06 04:13:38;;;;;;;;;;;;;;;8.99;53.34;101144.91;4982636;27;98200;-71
2024/03/06 04:16:04;;;;;;;;;;;;;;;8.97;52.50;101152.41;4987639;27;104792;-71
2024/03/06 04:18:33;;;;;;;;;;;;;;;8.96;52.74;101152.63;4961995;27;98328;-71
2024/03/06 04:21:06;;;;;;;;;;;;;;;8.96;53.42;101152.63;4989098;27;98067;-70
2024/03/06 04:23:32;;;;;;;;;;;;;;;8.94;52.61;101163.66;4973781;27;97981;-71
2024/03/06 04:25:59;;;;;;;;;;;;;;;8.93;53.38;101164.72;4998819;27;98323;-71
2024/03/06 04:28:25;;;;;;;;;;;;;;;8.91;52.67;101158.75;4965944;27;98116;-70
2024/03/06 04:30:51;;;;;;;;;;;;;;;8.91;52.99;101169.50;4991693;27;97988;-71
2024/03/06 04:33:17;;;;;;;;;;;;;;;8.89;52.78;101171.63;4987268;27;98427;-70
2024/03/06 04:35:43;;;;;;;;;;;;;;;8.90;52.99;101167.06;4984973;27;98246;-71
2024/03/06 04:38:09;;;;;;;;;;;;;;;8.88;53.24;101166.47;4984473;27;98258;-70
2024/03/06 04:40:35;;;;;;;;;;;;;;;8.86;52.73;101172.09;4983794;27;107783;-71
2024/03/06 04:43:01;;;;;;;;;;;;;;;8.85;52.85;101173.97;4971558;27;98170;-71
2024/03/06 04:45:30;;;;;;;;;;;;;;;8.84;53.36;101174.19;5006092;27;128346;-71
2024/03/06 04:47:56;;;;;;;;;;;;;;;8.88;53.29;101175.34;4989465;27;99659;-70
2024/03/06 04:50:25;;;;;;;;;;;;;;;8.93;52.82;101180.03;4970673;27;125347;-71
2024/03/06 04:52:51;;;;;;;;;;;;;;;8.99;53.19;101182.56;4970990;27;99684;-71
2024/03/06 04:55:22;;;;;;;;;;;;;;;9.03;53.20;101180.22;4985281;27;98420;-70
2024/03/06 04:57:48;;;;;;;;;;;;;;;9.06;52.89;101185.13;5000836;27;98659;-71
2024/03/06 05:00:14;;;;;;;;;;;;;;;9.08;53.08;101191.09;4992923;27;97924;-70
2024/03/06 05:02:41;;;;;;;;;;;;;;;9.12;53.13;101191.41;4991097;27;98753;-70
2024/03/06 05:05:08;;;;;;;;;;;;;;;9.13;53.27;101193.06;4966406;27;98201;-70
2024/03/06 05:07:34;;;;;;;;;;;;;;;9.13;52.73;101187.66;4971630;27;99542;-70
2024/03/06 05:10:00;;;;;;;;;;;;;;;9.14;52.74;101189.31;4982574;27;114212;-70
2024/03/06 05:12:26;;;;;;;;;;;;;;;9.13;52.53;101187.66;4998575;27;97917;-70
2024/03/06 05:14:52;;;;;;;;;;;;;;;9.13;52.99;101193.06;4981530;27;97932;-70
2024/03/06 05:17:18;;;;;;;;;;;;;;;9.14;52.60;101192.00;4992452;27;98308;-70
2024/03/06 05:19:47;;;;;;;;;;;;;;;9.12;53.31;101200.31;4969530;27;98505;-70
2024/03/06 05:22:13;;;;;;;;;;;;;;;9.11;53.16;101204.03;4978804;27;98197;-70
2024/03/06 05:24:39;;;;;;;;;;;;;;;9.12;53.52;101202.16;4985434;27;99709;-70
2024/03/06 05:27:06;;;;;;;;;;;;;;;9.07;53.00;101206.38;4979912;27;100162;-70
2024/03/06 05:29:32;;;;;;;;;;;;;;;9.09;52.78;101212.34;4983373;27;98442;-70
2024/03/06 05:31:58;;;;;;;;;;;;;;;9.08;53.20;101209.91;4987180;27;98075;-70
2024/03/06 05:34:24;;;;;;;;;;;;;;;9.07;52.92;101216.31;4981393;27;98574;-70
2024/03/06 05:36:50;;;;;;;;;;;;;;;9.06;53.27;101218.19;4966897;27;130284;-70
2024/03/06 05:39:17;;;;;;;;;;;;;;;9.05;52.76;101221.97;4985060;27;130200;-70
2024/03/06 05:41:43;;;;;;;;;;;;;;;9.05;52.81;101223.84;4963526;27;97960;-70
2024/03/06 05:44:10;;;;;;;;;;;;;;;9.04;52.83;101222.22;4986914;27;100382;-70
2024/03/06 05:46:36;;;;;;;;;;;;;;;9.03;52.92;101236.69;4985033;27;97869;-70
2024/03/06 05:49:02;;;;;;;;;;;;;;;9.04;53.13;101235.66;4983651;27;128112;-70
2024/03/06 05:51:28;;;;;;;;;;;;;;;9.03;53.08;101234.81;4966617;27;98109;-70
2024/03/06 05:53:54;;;;;;;;;;;;;;;9.03;52.73;101240.19;4967674;27;98101;-70
2024/03/06 05:56:20;;;;;;;;;;;;;;;9.03;53.20;101242.88;4958168;27;98288;-70
2024/03/06 05:58:46;;;;;;;;;;;;;;;9.04;53.08;101246.41;4965523;27;110245;-70
2024/03/06 06:01:18;;;;;;;;;;;;;;;9.05;52.77;101250.72;4966818;27;98371;-70
2024/03/06 06:03:44;;;;;;;;;;;;;;;9.06;53.04;101246.97;4990373;27;99254;-70
2024/03/06 06:06:10;;;;;;;;;;;;;;;9.07;52.67;101257.47;4976777;27;99310;-70
2024/03/06 06:08:36;;;;;;;;;;;;;;;9.10;52.47;101261.59;4978768;27;98053;-69
2024/03/06 06:11:03;;;;;;;;;;;;;;;9.12;52.41;101259.50;4980980;27;98063;-70
2024/03/06 06:13:29;;;;;;;;;;;;;;;9.15;52.67;101267.06;4999181;27;98636;-70
2024/03/06 06:15:57;;;;;;;;;;;;;;;9.16;52.58;101263.34;4980904;27;99712;-70
2024/03/06 06:18:23;;;;;;;;;;;;;;;9.20;52.54;101267.19;4969444;27;98815;-70
2024/03/06 06:20:49;;;;;;;;;;;;;;;9.24;53.14;101275.59;4948586;27;98296;-70
2024/03/06 06:23:15;;;;;;;;;;;;;;;9.27;52.93;101275.09;4981400;27;98047;-70
2024/03/06 06:25:41;;;;;;;;;;;;;;;9.31;52.76;101276.25;4966090;27;112206;-70
2024/03/06 06:28:07;;;;;;;;;;;;;;;9.35;52.63;101277.41;4968318;27;98695;-70
2024/03/06 06:30:33;;;;;;;;;;;;;;;9.40;52.92;101272.13;4950170;27;98362;-70
2024/03/06 06:32:59;;;;;;;;;;;;;;;9.45;52.37;101274.09;4950713;27;127794;-70
2024/03/06 06:35:25;;;;;;;;;;;;;;;9.49;52.68;101278.75;4943549;27;98925;-70
2024/03/06 06:37:51;;;;;;;;;;;;;;;9.56;52.61;101276.75;4949265;27;98282;-70
2024/03/06 06:40:17;;;;;;;;;;;;;;;9.62;52.13;101283.03;4973249;27;98319;-70
2024/03/06 06:42:49;;;;;;;;;;;;;;;9.69;52.38;101291.78;4964769;27;98519;-70
2024/03/06 06:45:15;;;;;;;;;;;;;;;9.76;52.45;101291.66;4968479;27;98466;-70
2024/03/06 06:47:42;;;;;;;;;;;;;;;9.84;52.52;101302.03;4977856;27;116674;-70
2024/03/06 06:50:08;;;;;;;;;;;;;;;9.91;52.39;101300.00;4960422;27;98291;-70
2024/03/06 06:52:35;;;;;;;;;;;;;;;9.99;52.30;101304.16;4959145;27;98553;-70
2024/03/06 06:55:01;;;;;;;;;;;;;;;10.06;52.14;101300.25;4958271;27;99494;-70
2024/03/06 06:57:28;;;;;;;;;;;;;;;10.16;52.26;101301.50;4963920;27;98896;-70
2024/03/06 06:59:54;;;;;;;;;;;;;;;10.24;52.09;101314.56;4965188;27;98169;-70
2024/03/06 07:02:20;;;;;;;;;;;;;;;10.32;52.18;101312.28;4965652;27;114178;-70
2024/03/06 07:04:46;;;;;;;;;;;;;;;10.42;51.64;101314.34;4952885;27;107841;-70
2024/03/06 07:07:12;;;;;;;;;;;;;;;10.53;52.06;101318.84;4971487;27;98338;-70
2024/03/06 07:09:38;;;;;;;;;;;;;;;10.62;51.48;101324.63;4965068;27;116184;-70
2024/03/06 07:12:04;;;;;;;;;;;;;;;10.69;51.66;101322.59;4945186;27;129550;-70
2024/03/06 07:14:30;;;;;;;;;;;;;;;10.79;52.05;101328.09;4958614;27;99447;-70
2024/03/06 07:16:56;;;;;;;;;;;;;;;10.88;51.34;101325.78;4968135;27;98113;-70
2024/03/06 07:19:22;;;;;;;;;;;;;;;11.00;51.52;101326.53;4964950;27;117864;-70
2024/03/06 07:21:48;;;;;;;;;;;;;;;11.12;51.45;101331.81;4962381;27;112125;-70
2024/03/06 07:24:14;;;;;;;;;;;;;;;11.25;51.38;101327.91;4974245;27;98165;-70
2024/03/06 07:26:41;;;;;;;;;;;;;;;11.41;51.58;101335.13;4960977;27;97974;-70
2024/03/06 07:29:14;;;;;;;;;;;;;;;11.54;51.40;101331.22;4991238;27;98271;-70
2024/03/06 07:31:41;;;;;;;;;;;;;;;11.68;51.34;101331.66;4948332;27;99827;-70
2024/03/06 07:34:08;;;;;;;;;;;;;;;11.84;51.22;101330.78;4953763;27;99421;-70
2024/03/06 07:36:35;;;;;;;;;;;;;;;12.01;51.12;101330.66;4985444;27;98981;-70
2024/03/06 07:39:02;;;;;;;;;;;;;;;12.16;51.39;101333.50;4977862;27;98107;-70
2024/03/06 07:41:28;;;;;;;;;;;;;;;12.35;51.11;101331.25;4958288;27;98570;-70
2024/03/06 07:43:55;;;;;;;;;;;;;;;12.64;50.64;101334.44;4973162;27;99890;-70
2024/03/06 07:46:21;;;;;;;;;;;;;;;12.96;50.55;101334.34;4959846;28;99793;-69
2024/03/06 07:48:47;;;;;;;;;;;;;;;13.10;50.58;101337.41;4983742;27;115983;-69
2024/03/06 07:51:13;;;;;;;;;;;;;;;13.14;50.79;101340.41;4974043;27;98358;-70
2024/03/06 07:53:39;;;;;;;;;;;;;;;13.28;50.72;101344.28;4961863;27;128441;-70
2024/03/06 07:56:05;;;;;;;;;;;;;;;13.43;50.50;101338.13;4953528;27;114868;-70
2024/03/06 07:58:31;;;;;;;;;;;;;;;13.57;50.57;101344.69;4954010;27;98508;-69
2024/03/06 08:00:59;;;;;;;;;;;;;;;13.54;50.54;101347.91;4974822;27;130045;-69
2024/03/06 08:03:25;;;;;;;;;;;;;;;13.45;50.68;101347.63;4958964;27;98221;-69
2024/03/06 08:05:54;;;;;;;;;;;;;;;13.34;51.09;101353.25;4944049;27;120703;-69
2024/03/06 08:08:20;;;;;;;;;;;;;;;13.35;51.01;101346.75;4964544;27;99622;-69
2024/03/06 08:10:46;;;;;;;;;;;;;;;13.37;50.99;101350.84;4992663;27;97977;-69
2024/03/06 08:13:13;;;;;;;;;;;;;;;13.45;51.24;101346.81;4943282;27;122727;-69
2024/03/06 08:15:39;;;;;;;;;;;;;;;13.43;50.94;101355.19;4967355;27;98537;-70
2024/03/06 08:18:06;;;;;;;;;;;;;;;13.30;51.19;101358.38;4980986;27;98721;-69
2024/03/06 08:20:32;;;;;;;;;;;;;;;13.23;51.48;101363.22;4983084;27;98699;-69
2024/03/06 08:22:58;;;;;;;;;;;;;;;13.13;51.58;101361.25;4966139;27;100126;-69
2024/03/06 08:25:25;;;;;;;;;;;;;;;13.13;51.79;101371.28;5012507;27;98786;-69
2024/03/06 08:27:51;;;;;;;;;;;;;;;13.13;51.45;101369.38;5001166;27;98466;-69
2024/03/06 08:30:17;;;;;;;;;;;;;;;13.03;51.86;101378.25;4978930;27;99064;-70
2024/03/06 08:32:43;;;;;;;;;;;;;;;13.08;51.63;101382.88;4993233;27;98904;-69
2024/03/06 08:35:13;;;;;;;;;;;;;;;13.12;51.47;101378.56;4993171;27;98172;-69
2024/03/06 08:37:43;;;;;;;;;;;;;;;13.68;50.78;101376.16;4978504;27;99079;-70
2024/03/06 08:40:15;;;;;;;;;;;;;;;14.31;50.27;101378.72;4999325;27;98260;-70
2024/03/06 08:42:42;;;;;;;;;;;;;;;14.17;50.72;101380.31;4979789;27;98196;-70
2024/03/06 08:45:08;;;;;;;;;;;;;;;14.23;50.67;101381.97;4978510;27;98574;-70
2024/03/06 08:47:35;;;;;;;;;;;;;;;14.82;49.99;101377.94;4949184;27;98976;-70
2024/03/06 08:50:02;;;;;;;;;;;;;;;15.30;49.61;101379.16;4959482;27;100236;-69
2024/03/06 08:52:28;;;;;;;;;;;;;;;15.70;49.49;101378.19;4969981;27;98201;-70
2024/03/06 08:54:54;;;;;;;;;;;;;;;15.55;50.04;101385.59;4973607;27;98444;-70
2024/03/06 08:57:22;;;;;;;;;;;;;;;15.61;50.05;101387.19;4988664;27;99758;-70
2024/03/06 08:59:48;;;;;;;;;;;;;;;16.13;49.67;101383.13;4977854;27;99512;-70
2024/03/06 09:02:15;;;;;;;;;;;;;;;16.65;49.16;101387.06;4958394;27;100075;-70
2024/03/06 09:04:42;;;;;;;;;;;;;;;17.52;48.55;101381.53;5013310;27;97996;-70
2024/03/06 09:07:08;;;;;;;;;;;;;;;19.79;46.33;101387.28;4978814;27;98295;-70
2024/03/06 09:09:36;;;;;;;;;;;;;;;19.84;46.98;101392.63;4963089;27;98028;-70
2024/03/06 09:12:05;;;;;;;;;;;;;;;19.68;47.69;101396.81;4961097;27;99660;-70
2024/03/06 09:14:32;;;;;;;;;;;;;;;20.28;47.39;101403.97;4964575;27;98902;-70
2024/03/06 09:16:58;;;;;;;;;;;;;;;21.26;46.64;101403.09;4962627;27;98242;-70
2024/03/06 09:19:24;;;;;;;;;;;;;;;22.95;45.15;101406.97;4976342;27;119206;-70
2024/03/06 09:21:50;;;;;;;;;;;;;;;24.76;44.06;101419.84;4976761;27;128545;-70
2024/03/06 09:24:16;;;;;;;;;;;;;;;25.61;44.02;101425.47;4981150;27;98519;-70
2024/03/06 09:26:42;;;;;;;;;;;;;;;26.80;43.57;101429.75;4978594;27;98615;-70
2024/03/06 09:29:08;;;;;;;;;;;;;;;26.76;44.27;101437.94;4993940;27;112455;-70
2024/03/06 09:31:34;;;;;;;;;;;;;;;27.54;43.71;101433.59;4974579;27;98239;-70
2024/03/06 09:34:00;;;;;;;;;;;;;;;28.07;43.61;101442.34;4962697;27;127714;-70
2024/03/06 09:36:26;;;;;;;;;;;;;;;28.49;44.16;101436.13;4982314;27;117739;-71
2024/03/06 09:38:52;;;;;;;;;;;;;;;29.01;43.97;101437.50;4974301;27;105047;-70
2024/03/06 09:41:18;;;;;;;;;;;;;;;29.54;43.77;101437.53;4964095;27;98007;-70
2024/03/06 09:43:47;;;;;;;;;;;;;;;30.52;43.07;101435.69;4977466;27;98854;-70
2024/03/06 09:46:14;;;;;;;;;;;;;;;30.49;43.52;101425.34;4997800;27;98752;-70
2024/03/06 09:48:47;;;;;;;;;;;;;;;31.62;42.47;101423.19;4974332;27;98536;-71
2024/03/06 09:51:13;;;;;;;;;;;;;;;31.77;42.56;101431.22;4980465;27;98379;-71
2024/03/06 09:53:40;;;;;;;;;;;;;;;31.95;42.59;101431.38;4968198;27;98845;-70
2024/03/06 09:56:06;;;;;;;;;;;;;;;32.41;42.45;101425.19;4983449;27;102308;-70
2024/03/06 09:58:32;;;;;;;;;;;;;;;33.04;41.94;101434.06;4998056;27;98382;-70
2024/03/06 10:01:00;;;;;;;;;;;;;;;33.89;41.54;101433.19;4994558;27;98016;-70
2024/03/06 10:03:26;;;;;;;;;;;;;;;34.48;40.90;101434.53;4966666;27;99977;-70
2024/03/06 10:05:54;;;;;;;;;;;;;;;35.32;40.39;101421.13;4984251;27;98527;-70
2024/03/06 10:08:22;;;;;;;;;;;;;;;35.28;41.15;101430.78;4966341;27;98859;-70
2024/03/06 10:10:51;;;;;;;;;;;;;;;33.93;42.98;101430.38;4985744;27;98330;-70
2024/03/06 10:13:17;;;;;;;;;;;;;;;32.87;44.01;101427.25;4964315;27;108765;-70
2024/03/06 10:16:11;;;;;;;;;;;;;;;33.33;43.10;101434.06;4964024;27;98235;-70
2024/03/06 10:18:39;;;;;;;;;;;;;;;33.57;43.04;101432.47;4981683;27;98048;-70
2024/03/06 10:21:05;;;;;;;;;;;;;;;33.49;43.36;101430.91;4996567;27;98683;-70
2024/03/06 10:23:31;;;;;;;;;;;;;;;33.32;44.00;101422.09;4963058;27;98064;-70
2024/03/06 10:25:58;;;;;;;;;;;;;;;33.46;43.80;101426.91;4977352;27;98457;-70
2024/03/06 10:28:25;;;;;;;;;;;;;;;32.92;44.95;101420.47;4993712;27;100112;-70
2024/03/06 10:30:52;;;;;;;;;;;;;;;32.85;44.74;101426.84;4984951;27;99684;-70
2024/03/06 10:33:21;;;;;;;;;;;;;;;32.81;45.12;101423.25;4966755;27;97967;-70
2024/03/06 10:35:51;;;;;;;;;;;;;;;32.62;45.49;101423.63;4980431;27;98427;-70
2024/03/06 10:38:19;;;;;;;;;;;;;;;32.51;45.47;101420.84;4983887;27;98811;-70
2024/03/06 10:40:45;;;;;;;;;;;;;;;32.41;45.34;101422.38;4975637;27;118699;-70
2024/03/06 10:43:11;;;;;;;;;;;;;;;32.33;45.82;101420.75;4978208;27;98059;-70
2024/03/06 10:45:42;;;;;;;;;;;;;;;32.28;45.96;101417.56;4979629;27;98400;-71
2024/03/06 10:48:11;;;;;;;;;;;;;;;32.23;45.87;101427.09;4992906;27;98139;-70
2024/03/06 10:50:43;;;;;;;;;;;;;;;32.21;46.03;101418.31;4987289;27;98241;-70
2024/03/06 10:53:10;;;;;;;;;;;;;;;32.22;45.61;101420.69;4984451;27;98171;-70
2024/03/06 10:55:36;;;;;;;;;;;;;;;32.18;46.07;101419.88;4983403;27;98897;-70
2024/03/06 10:58:08;;;;;;;;;;;;;;;32.55;45.61;101418.06;4966299;27;98617;-71
2024/03/06 11:00:40;;;;;;;;;;;;;;;31.72;46.79;101412.09;4984748;27;98553;-70
2024/03/06 11:03:08;;;;;;;;;;;;;;;31.03;47.44;101423.91;4972507;27;98385;-70
2024/03/06 11:05:40;;;;;;;;;;;;;;;30.37;47.86;101422.81;4984287;27;98132;-70
2024/03/06 11:08:10;;;;;;;;;;;;;;;30.40;47.67;101424.06;4968301;27;99919;-70
2024/03/06 11:10:38;;;;;;;;;;;;;;;29.63;48.38;101428.97;4982654;27;98835;-70
2024/03/06 11:13:23;;;;;;;;;;;;;;;28.87;48.71;101417.78;4960478;27;99051;-70
2024/03/06 11:15:53;;;;;;;;;;;;;;;29.49;47.90;101414.88;4998837;27;98352;-70
2024/03/06 11:18:28;;;;;;;;;;;;;;;29.64;47.52;101424.25;4959118;27;98739;-70
2024/03/06 11:21:16;;;;;;;;;;;;;;;29.89;47.22;101417.03;5009834;27;98477;-70
2024/03/06 11:24:16;;;;;;;;;;;;;;;29.42;47.56;101420.31;4963157;27;98876;-70
2024/03/06 11:27:05;;;;;;;;;;;;;;;28.88;48.57;101411.06;4996903;27;99248;-70
2024/03/06 11:30:04;;;;;;;;;;;;;;;28.71;48.29;101409.56;4981596;27;98030;-70
2024/03/06 11:32:30;;;;;;;;;;;;;;;28.17;48.85;101416.03;4985109;27;98404;-70
2024/03/06 11:34:56;;;;;;;;;;;;;;;27.70;49.31;101411.41;4979830;27;98175;-70
2024/03/06 11:37:22;;;;;;;;;;;;;;;27.08;49.48;101408.38;4968862;27;100681;-70
2024/03/06 11:39:48;;;;;;;;;;;;;;;27.28;49.14;101408.50;4977437;27;98527;-70
2024/03/06 11:42:14;;;;;;;;;;;;;;;27.70;48.43;101405.09;4977660;27;127871;-70
2024/03/06 11:44:54;;;;;;;;;;;;;;;27.87;48.37;101408.28;4963061;27;98265;-70
2024/03/06 11:47:20;;;;;;;;;;;;;;;28.05;48.04;101407.84;4965293;27;98207;-70
2024/03/06 11:49:46;;;;;;;;;;;;;;;28.22;48.07;101406.59;4977452;27;129055;-70
2024/03/06 11:52:12;;;;;;;;;;;;;;;28.37;47.62;101401.03;4980737;27;129728;-70
2024/03/06 11:54:38;;;;;;;;;;;;;;;28.48;47.76;101401.22;4998574;27;98018;-70
2024/03/06 11:57:05;;;;;;;;;;;;;;;28.62;47.76;101406.25;4994378;27;98427;-70
2024/03/06 11:59:32;;;;;;;;;;;;;;;28.76;47.66;101408.47;4977253;27;99472;-70
2024/03/06 12:02:01;;;;;;;;;;;;;;;28.81;47.52;101408.97;4982234;27;98232;-70
2024/03/06 12:04:27;;;;;;;;;;;;;;;28.92;47.66;101400.81;4967583;27;98198;-70
2024/03/06 12:06:56;;;;;;;;;;;;;;;29.00;47.37;101401.78;4982611;27;115669;-70
2024/03/06 12:09:22;;;;;;;;;;;;;;;28.48;48.21;101406.78;4985076;27;99446;-70
2024/03/06 12:11:48;;;;;;;;;;;;;;;28.23;48.20;101391.59;4979099;27;115009;-70
2024/03/06 12:14:21;;;;;;;;;;;;;;;27.75;49.03;101402.88;4985503;27;98260;-70
2024/03/06 12:17:04;;;;;;;;;;;;;;;27.10;49.61;101397.75;4998046;27;98302;-70
2024/03/06 12:19:32;;;;;;;;;;;;;;;27.22;49.27;101396.06;4966640;27;98243;-70
2024/03/06 12:22:04;;;;;;;;;;;;;;;27.16;48.83;101403.84;4982134;27;119591;-70
2024/03/06 12:24:30;;;;;;;;;;;;;;;27.04;49.00;101396.41;4984378;27;98571;-70
2024/03/06 12:27:04;;;;;;;;;;;;;;;26.98;48.88;101394.28;4984618;27;98174;-70
2024/03/06 12:29:31;;;;;;;;;;;;;;;27.00;48.81;101394.69;4977792;27;98470;-70
2024/03/06 12:31:58;;;;;;;;;;;;;;;27.01;48.69;101394.34;4959913;27;98073;-70
2024/03/06 12:34:24;;;;;;;;;;;;;;;26.82;49.03;101399.78;4977148;27;110964;-70
2024/03/06 12:36:50;;;;;;;;;;;;;;;26.32;49.49;101403.94;5000767;27;98406;-70
2024/03/06 12:39:21;;;;;;;;;;;;;;;26.28;49.35;101398.31;4978402;27;98202;-70